createdAt,value
2023-01-06T00:01:40.232Z,21.85
2023-01-06T00:04:08.293Z,19.83
2023-01-06T00:06:36.477Z,17.70
2023-01-06T00:09:05.605Z,16.33
2023-01-06T00:14:02.135Z,18.30
2023-01-06T00:16:31.023Z,16.50
2023-01-06T00:19:00.727Z,14.75
2023-01-06T00:21:29.100Z,16.05
2023-01-06T00:23:57.475Z,18.02
2023-01-06T00:26:25.515Z,19.75
2023-01-06T00:28:55.693Z,19.65
2023-01-06T00:31:23.926Z,22.15
2023-01-06T00:33:52.195Z,21.42
2023-01-06T00:36:21.949Z,19.15
2023-01-06T00:38:51.490Z,10.05
2023-01-06T00:41:40.123Z,7.82
2023-01-06T00:44:08.823Z,8.05
2023-01-06T00:46:37.579Z,6.25
2023-01-06T00:49:07.352Z,5.22
2023-01-06T00:51:37.650Z,5.85
2023-01-06T00:54:08.355Z,5.88
2023-01-06T00:56:41.170Z,5.25
2023-01-06T00:59:10.236Z,5.38
2023-01-06T01:01:39.046Z,6.47
2023-01-06T01:04:08.153Z,4.57
2023-01-06T01:06:37.004Z,5.68
2023-01-06T01:09:07.072Z,4.93
2023-01-06T01:11:54.770Z,3.95
2023-01-06T01:14:22.954Z,4.20
2023-01-06T01:16:51.076Z,4.68
2023-01-06T01:19:20.007Z,4.43
2023-01-06T01:21:48.154Z,3.60
2023-01-06T01:24:16.491Z,6.05
2023-01-06T01:26:44.677Z,4.15
2023-01-06T01:29:14.776Z,4.35
2023-01-06T01:31:43.049Z,4.55
2023-01-06T01:34:12.698Z,3.38
2023-01-06T01:36:42.718Z,4.40
2023-01-06T01:39:12.768Z,4.60
2023-01-06T01:41:40.985Z,4.40
2023-01-06T01:45:06.146Z,3.22
2023-01-06T01:47:37.181Z,3.50
2023-01-06T01:50:30.076Z,3.83
2023-01-06T01:53:06.023Z,3.08
2023-01-06T01:55:36.413Z,3.28
2023-01-06T01:58:13.218Z,3.88
2023-01-06T02:00:43.829Z,3.40
2023-01-06T02:03:14.560Z,4.32
2023-01-06T02:05:48.060Z,4.82
2023-01-06T02:08:31.591Z,3.08
2023-01-06T02:10:59.784Z,3.75
2023-01-06T02:13:28.169Z,3.20
2023-01-06T02:16:15.426Z,3.03
2023-01-06T02:19:22.533Z,3.53
2023-01-06T02:22:21.766Z,3.13
2023-01-06T02:24:49.837Z,2.78
2023-01-06T02:27:50.093Z,2.60
2023-01-06T02:30:46.614Z,4.00
2023-01-06T02:33:25.340Z,3.53
2023-01-06T02:36:36.266Z,2.58
2023-01-06T02:39:26.719Z,2.78
2023-01-06T02:42:42.806Z,3.65
2023-01-06T02:45:23.131Z,4.45
2023-01-06T02:48:34.022Z,1.90
2023-01-06T02:51:10.574Z,1.95
2023-01-06T02:53:56.322Z,2.10
2023-01-06T03:00:35.058Z,1.35
2023-01-06T03:03:09.938Z,2.40
2023-01-06T03:05:39.746Z,2.47
2023-01-06T03:08:14.981Z,3.17
2023-01-06T03:10:45.079Z,2.55
2023-01-06T03:13:27.035Z,4.95
2023-01-06T03:15:59.158Z,1.77
2023-01-06T03:18:27.811Z,3.25
2023-01-06T03:20:59.808Z,5.65
2023-01-06T03:23:27.989Z,4.55
2023-01-06T03:25:56.364Z,5.82
2023-01-06T03:28:26.996Z,5.75
2023-01-06T03:31:24.444Z,2.50
2023-01-06T03:34:34.026Z,12.57
2023-01-06T03:37:27.927Z,2.60
2023-01-06T03:40:29.515Z,1.70
2023-01-06T03:43:20.019Z,2.17
2023-01-06T03:46:14.356Z,2.55
2023-01-06T03:51:34.940Z,2.30
2023-01-06T03:54:18.245Z,4.82
2023-01-06T03:56:51.268Z,2.25
2023-01-06T03:59:22.580Z,2.60
2023-01-06T04:01:52.992Z,4.97
2023-01-06T04:04:22.300Z,2.28
2023-01-06T04:06:50.554Z,3.63
2023-01-06T04:09:18.739Z,2.97
2023-01-06T04:12:05.595Z,2.05
2023-01-06T04:14:37.899Z,1.67
2023-01-06T04:17:06.989Z,1.92
2023-01-06T04:22:04.204Z,4.47
2023-01-06T04:24:33.906Z,35.03
2023-01-06T04:27:02.107Z,22.30
2023-01-06T04:29:30.301Z,15.98
2023-01-06T04:31:59.478Z,15.80
2023-01-06T04:34:27.460Z,17.73
2023-01-06T04:36:56.304Z,16.95
2023-01-06T04:39:24.315Z,14.60
2023-01-06T04:41:52.289Z,5.28
2023-01-06T04:44:20.199Z,8.65
2023-01-06T04:46:48.371Z,5.93
2023-01-06T04:49:16.502Z,5.68
2023-01-06T04:51:44.386Z,6.07
2023-01-06T04:54:12.945Z,2.42
2023-01-06T04:56:41.123Z,7.25
2023-01-06T04:59:09.173Z,6.85
2023-01-06T05:01:37.864Z,9.20
2023-01-06T05:04:08.496Z,8.45
2023-01-06T05:06:36.743Z,6.55
2023-01-06T05:09:04.663Z,6.40
2023-01-06T05:11:32.549Z,5.90
2023-01-06T05:14:00.626Z,4.90
2023-01-06T05:16:31.024Z,6.03
2023-01-06T05:18:59.494Z,5.43
2023-01-06T05:21:32.270Z,2.17
2023-01-06T05:24:01.141Z,5.05
2023-01-06T05:26:29.377Z,5.22
2023-01-06T05:28:57.513Z,4.40
2023-01-06T05:31:25.554Z,3.67
2023-01-06T05:33:53.617Z,4.18
2023-01-06T05:36:21.569Z,3.70
2023-01-06T05:38:54.359Z,6.53
2023-01-06T05:41:22.332Z,3.28
2023-01-06T05:43:50.256Z,2.83
2023-01-06T05:46:18.541Z,3.17
2023-01-06T05:48:46.829Z,3.13
2023-01-06T05:51:16.382Z,3.75
2023-01-06T05:53:46.574Z,3.28
2023-01-06T05:56:19.367Z,4.20
2023-01-06T05:58:49.711Z,2.25
2023-01-06T06:01:26.164Z,2.50
2023-01-06T06:03:55.460Z,2.58
2023-01-06T06:06:25.798Z,6.63
2023-01-06T06:08:53.833Z,2.38
2023-01-06T06:11:24.832Z,3.45
2023-01-06T06:13:55.475Z,16.52
2023-01-06T06:16:26.008Z,8.60
2023-01-06T06:18:56.364Z,8.32
2023-01-06T06:21:27.566Z,3.10
2023-01-06T06:23:57.408Z,5.22
2023-01-06T06:26:26.000Z,2.08
2023-01-06T06:28:54.409Z,7.72
2023-01-06T06:31:27.531Z,6.72
2023-01-06T06:33:58.081Z,3.92
2023-01-06T06:36:26.653Z,4.15
2023-01-06T06:38:55.357Z,3.08
2023-01-06T06:41:25.089Z,5.38
2023-01-06T06:43:53.287Z,2.65
2023-01-06T06:46:21.608Z,2.60
2023-01-06T06:48:50.336Z,3.30
2023-01-06T06:51:21.365Z,3.28
2023-01-06T06:53:50.347Z,4.13
2023-01-06T06:58:46.984Z,2.67
2023-01-06T07:01:17.843Z,3.70
2023-01-06T07:03:46.389Z,1.48
2023-01-06T07:06:17.967Z,2.30
2023-01-06T07:08:48.655Z,2.70
2023-01-06T07:11:17.042Z,4.15
2023-01-06T07:13:45.015Z,5.25
2023-01-06T07:16:13.436Z,4.15
2023-01-06T07:18:41.461Z,1.25
2023-01-06T07:21:09.834Z,1.75
2023-01-06T07:23:38.020Z,3.30
2023-01-06T07:26:06.210Z,2.47
2023-01-06T07:28:34.277Z,2.10
2023-01-06T07:31:02.463Z,1.77
2023-01-06T07:33:31.168Z,2.35
2023-01-06T07:35:59.284Z,1.88
2023-01-06T07:38:27.624Z,3.15
2023-01-06T07:41:00.626Z,2.10
2023-01-06T07:43:29.625Z,1.65
2023-01-06T07:48:25.465Z,1.33
2023-01-06T07:50:53.422Z,3.35
2023-01-06T07:53:21.465Z,1.85
2023-01-06T07:55:54.038Z,1.27
2023-01-06T07:58:24.317Z,1.60
2023-01-06T08:00:52.937Z,2.42
2023-01-06T08:03:21.069Z,2.67
2023-01-06T08:05:49.245Z,3.13
2023-01-06T08:08:17.374Z,2.00
2023-01-06T08:10:45.707Z,3.00
2023-01-06T08:13:13.786Z,2.67
2023-01-06T08:15:42.313Z,2.00
2023-01-06T08:18:10.376Z,1.65
2023-01-06T08:20:38.367Z,4.70
2023-01-06T08:23:06.530Z,4.78
2023-01-06T08:25:34.635Z,4.30
2023-01-06T08:28:03.032Z,2.53
2023-01-06T08:30:31.106Z,3.85
2023-01-06T08:33:00.680Z,9.80
2023-01-06T08:35:28.712Z,9.35
2023-01-06T08:37:56.850Z,6.22
2023-01-06T08:40:24.957Z,4.22
2023-01-06T08:42:53.043Z,3.00
2023-01-06T08:45:20.975Z,4.80
2023-01-06T08:47:49.070Z,4.38
2023-01-06T08:50:17.397Z,1.20
2023-01-06T08:52:45.593Z,1.50
2023-01-06T08:55:13.875Z,2.45
2023-01-06T08:57:41.829Z,2.38
2023-01-06T09:00:10.478Z,2.75
2023-01-06T09:02:38.594Z,2.88
2023-01-06T09:05:07.191Z,2.53
2023-01-06T09:07:35.176Z,2.55
2023-01-06T09:10:03.432Z,1.00
2023-01-06T09:12:32.006Z,1.30
2023-01-06T09:15:00.338Z,1.45
2023-01-06T09:17:28.386Z,2.05
2023-01-06T09:19:56.318Z,2.67
2023-01-06T09:22:24.245Z,2.22
2023-01-06T09:24:52.363Z,3.97
2023-01-06T09:27:21.628Z,1.58
2023-01-06T09:29:50.776Z,2.42
2023-01-06T09:32:18.805Z,1.27
2023-01-06T09:34:46.984Z,1.25
2023-01-06T09:37:14.909Z,1.63
2023-01-06T09:39:42.952Z,1.42
2023-01-06T09:42:38.633Z,1.15
2023-01-06T09:45:12.727Z,1.30
2023-01-06T09:47:56.207Z,1.00
2023-01-06T09:50:41.608Z,2.25
2023-01-06T09:53:22.587Z,3.95
2023-01-06T09:56:01.012Z,4.63
2023-01-06T09:58:34.358Z,10.57
2023-01-06T10:01:08.487Z,2.80
2023-01-06T10:03:36.661Z,5.93
2023-01-06T10:06:19.367Z,6.05
2023-01-06T10:09:08.583Z,10.80
2023-01-06T10:11:54.853Z,4.55
2023-01-06T10:14:28.717Z,52.35
2023-01-06T10:17:23.945Z,10.68
2023-01-06T10:20:27.053Z,3.85
2023-01-06T10:23:17.852Z,2.13
2023-01-06T10:26:00.479Z,2.13
2023-01-06T10:28:54.135Z,1.55
2023-01-06T10:31:30.631Z,2.72
2023-01-06T10:33:59.335Z,4.47
2023-01-06T10:36:41.684Z,0.98
2023-01-06T10:39:23.961Z,0.82
2023-01-06T10:42:25.236Z,1.50
2023-01-06T10:44:53.215Z,1.40
2023-01-06T10:47:29.020Z,3.22
2023-01-06T10:49:57.959Z,2.83
2023-01-06T10:52:27.806Z,7.55
2023-01-06T10:55:03.149Z,14.32
2023-01-06T10:57:36.876Z,8.95
2023-01-06T11:00:24.336Z,5.65
2023-01-06T11:03:14.272Z,1.50
2023-01-06T11:05:46.273Z,1.67
2023-01-06T11:08:16.207Z,2.72
2023-01-06T11:10:52.235Z,1.35
2023-01-06T11:13:39.471Z,2.50
2023-01-06T11:16:35.943Z,0.93
2023-01-06T11:19:08.913Z,2.55
2023-01-06T11:21:42.571Z,16.20
2023-01-06T11:24:25.392Z,1.80
2023-01-06T11:27:16.433Z,8.55
2023-01-06T11:29:44.411Z,1.10
2023-01-06T11:32:20.385Z,2.97
2023-01-06T11:34:59.303Z,1.20
2023-01-06T11:37:39.569Z,1.10
2023-01-06T11:40:27.373Z,1.75
2023-01-06T11:42:58.845Z,1.70
2023-01-06T11:45:32.611Z,2.20
2023-01-06T11:48:03.076Z,1.67
2023-01-06T11:50:31.993Z,1.45
2023-01-06T11:53:15.590Z,8.82
2023-01-06T11:55:56.789Z,7.50
2023-01-06T11:58:51.248Z,4.05
2023-01-06T12:01:41.794Z,5.93
2023-01-06T12:04:30.288Z,3.75
2023-01-06T12:07:15.694Z,2.50
2023-01-06T12:09:46.455Z,5.15
2023-01-06T12:12:21.464Z,5.88
2023-01-06T12:14:49.395Z,4.40
2023-01-06T12:17:54.112Z,5.38
2023-01-06T12:20:29.167Z,6.53
2023-01-06T12:23:12.947Z,9.15
2023-01-06T12:26:02.548Z,7.00
2023-01-06T12:28:37.083Z,4.97
2023-01-06T12:31:10.706Z,4.97
2023-01-06T12:33:52.642Z,4.15
2023-01-06T12:36:35.827Z,4.32
2023-01-06T12:39:15.007Z,2.75
2023-01-06T12:41:56.512Z,3.45
2023-01-06T12:44:42.091Z,2.85
2023-01-06T12:47:28.785Z,2.15
2023-01-06T12:50:03.053Z,2.30
2023-01-06T12:52:38.239Z,2.08
2023-01-06T12:55:07.586Z,2.38
2023-01-06T12:57:50.181Z,3.70
2023-01-06T13:00:40.926Z,3.45
2023-01-06T13:03:21.090Z,4.25
2023-01-06T13:06:16.394Z,2.80
2023-01-06T13:09:14.508Z,5.13
2023-01-06T13:12:09.918Z,1.83
2023-01-06T13:15:17.423Z,3.72
2023-01-06T13:18:06.363Z,2.17
2023-01-06T13:21:03.559Z,2.35
2023-01-06T13:23:56.519Z,2.35
2023-01-06T13:27:00.662Z,4.35
2023-01-06T13:29:40.067Z,2.38
2023-01-06T13:32:25.527Z,3.90
2023-01-06T13:35:21.004Z,5.15
2023-01-06T13:38:15.766Z,3.92
2023-01-06T13:40:45.495Z,1.75
2023-01-06T13:43:25.228Z,2.80
2023-01-06T13:46:04.256Z,4.13
2023-01-06T13:48:38.928Z,2.97
2023-01-06T13:51:10.665Z,5.32
2023-01-06T13:53:44.696Z,2.20
2023-01-06T13:56:12.828Z,11.55
2023-01-06T13:58:48.667Z,11.15
2023-01-06T14:01:19.513Z,7.35
2023-01-06T14:03:51.940Z,4.82
2023-01-06T14:06:23.312Z,3.22
2023-01-06T14:09:00.328Z,2.10
2023-01-06T14:11:35.381Z,2.10
2023-01-06T14:14:27.204Z,28.38
2023-01-06T14:16:57.744Z,3.92
2023-01-06T14:19:35.290Z,16.20
2023-01-06T14:22:34.213Z,5.82
2023-01-06T14:25:05.698Z,5.63
2023-01-06T14:27:48.940Z,8.75
2023-01-06T14:30:31.847Z,2.13
2023-01-06T14:33:32.261Z,2.22
2023-01-06T14:36:13.806Z,2.15
2023-01-06T14:38:55.725Z,2.70
2023-01-06T14:41:35.722Z,2.97
2023-01-06T14:44:31.519Z,2.38
2023-01-06T14:47:13.400Z,5.68
2023-01-06T14:49:56.665Z,12.70
2023-01-06T14:52:39.013Z,6.13
2023-01-06T14:55:12.274Z,6.13
2023-01-06T14:57:40.393Z,3.45
2023-01-06T15:00:27.437Z,2.42
2023-01-06T15:02:57.735Z,3.75
2023-01-06T15:05:32.535Z,11.70
2023-01-06T15:08:12.498Z,15.57
2023-01-06T15:10:49.799Z,13.80
2023-01-06T15:13:36.561Z,7.20
2023-01-06T15:16:25.992Z,21.02
2023-01-06T15:18:55.440Z,4.80
2023-01-06T15:21:24.152Z,21.83
2023-01-06T15:23:55.551Z,10.38
2023-01-06T15:26:27.384Z,8.98
2023-01-06T15:28:58.808Z,7.80
2023-01-06T15:31:28.713Z,4.18
2023-01-06T15:33:58.464Z,5.93
2023-01-06T15:36:27.071Z,8.05
2023-01-06T15:39:00.605Z,6.85
2023-01-06T15:41:33.713Z,5.25
2023-01-06T15:44:03.846Z,6.50
2023-01-06T15:46:41.762Z,4.15
2023-01-06T15:49:23.701Z,7.88
2023-01-06T15:51:58.012Z,6.95
2023-01-06T15:54:29.224Z,30.35
2023-01-06T15:57:11.555Z,7.68
2023-01-06T15:59:58.014Z,6.95
2023-01-06T16:02:30.957Z,21.88
2023-01-06T16:05:02.829Z,5.93
2023-01-06T16:07:41.417Z,8.02
2023-01-06T16:10:35.861Z,4.03
2023-01-06T16:13:18.251Z,3.78
2023-01-06T16:16:02.787Z,3.03
2023-01-06T16:18:36.599Z,3.17
2023-01-06T16:21:25.508Z,15.93
2023-01-06T16:23:55.733Z,9.68
2023-01-06T16:26:26.971Z,9.25
2023-01-06T16:28:58.268Z,8.95
2023-01-06T16:31:35.262Z,14.55
2023-01-06T16:34:23.053Z,7.28
2023-01-06T16:36:54.748Z,5.40
2023-01-06T16:39:23.491Z,6.90
2023-01-06T16:42:00.510Z,8.43
2023-01-06T16:44:31.266Z,11.55
2023-01-06T16:47:01.441Z,12.63
2023-01-06T16:49:31.014Z,7.53
2023-01-06T16:52:00.054Z,27.48
2023-01-06T16:54:29.422Z,25.58
2023-01-06T16:56:57.955Z,32.40
2023-01-06T16:59:36.387Z,19.75
2023-01-06T17:02:16.722Z,38.50
2023-01-06T17:04:46.957Z,19.75
2023-01-06T17:07:15.851Z,14.18
2023-01-06T17:09:44.012Z,25.42
2023-01-06T17:12:38.274Z,18.50
2023-01-06T17:15:10.388Z,13.77
2023-01-06T17:17:40.704Z,11.40
2023-01-06T17:20:13.344Z,16.65
2023-01-06T17:22:41.505Z,29.73
2023-01-06T17:25:13.700Z,36.42
2023-01-06T17:27:45.923Z,18.52
2023-01-06T17:30:20.158Z,20.60
2023-01-06T17:32:48.947Z,25.02
2023-01-06T17:35:21.460Z,42.42
2023-01-06T17:37:50.370Z,24.67
2023-01-06T17:40:22.412Z,34.45
2023-01-06T17:43:04.402Z,22.67
2023-01-06T17:45:34.399Z,24.25
2023-01-06T17:48:03.278Z,30.58
2023-01-06T17:50:35.471Z,15.82
2023-01-06T17:53:36.371Z,19.83
2023-01-06T17:56:10.208Z,10.25
2023-01-06T17:58:41.570Z,20.67
2023-01-06T18:01:17.274Z,35.10
2023-01-06T18:03:47.115Z,30.00
2023-01-06T18:06:26.790Z,28.73
2023-01-06T18:09:06.164Z,27.55
2023-01-06T18:11:44.374Z,15.55
2023-01-06T18:14:23.368Z,17.20
2023-01-06T18:16:57.755Z,29.35
2023-01-06T18:19:36.094Z,25.10
2023-01-06T18:22:25.451Z,23.92
2023-01-06T18:25:00.742Z,29.48
2023-01-06T18:30:15.263Z,46.67
2023-01-06T18:32:44.478Z,43.63
2023-01-06T18:35:18.987Z,44.72
2023-01-06T18:37:48.479Z,18.45
2023-01-06T18:40:25.839Z,20.65
2023-01-06T18:42:55.506Z,30.23
2023-01-06T18:45:31.785Z,26.45
2023-01-06T18:48:11.623Z,39.90
2023-01-06T18:50:42.804Z,37.38
2023-01-06T18:53:22.642Z,36.45
2023-01-06T18:55:59.203Z,32.67
2023-01-06T18:58:47.930Z,33.58
2023-01-06T19:01:26.650Z,31.40
2023-01-06T19:04:16.304Z,32.42
2023-01-06T19:07:11.785Z,69.93
2023-01-06T19:09:44.283Z,34.92
2023-01-06T19:12:40.672Z,36.55
2023-01-06T19:15:26.583Z,33.03
2023-01-06T19:17:55.391Z,40.08
2023-01-06T19:20:29.525Z,40.10
2023-01-06T19:22:58.255Z,28.73
2023-01-06T19:25:31.037Z,25.92
2023-01-06T19:28:03.252Z,23.55
2023-01-06T19:30:41.410Z,18.08
2023-01-06T19:33:34.917Z,21.40
2023-01-06T19:36:06.509Z,18.45
2023-01-06T19:38:42.888Z,22.67
2023-01-06T19:41:32.262Z,41.38
2023-01-06T19:44:06.705Z,31.52
2023-01-06T19:46:42.248Z,23.58
2023-01-06T19:49:16.929Z,23.45
2023-01-06T19:51:48.286Z,25.98
2023-01-06T19:54:25.992Z,26.52
2023-01-06T19:56:56.541Z,26.58
2023-01-06T19:59:29.481Z,35.63
2023-01-06T20:02:10.214Z,36.70
2023-01-06T20:04:39.513Z,39.40
2023-01-06T20:07:08.054Z,47.35
2023-01-06T20:09:36.509Z,48.05
2023-01-06T20:12:04.998Z,48.97
2023-01-06T20:14:33.642Z,45.53
2023-01-06T20:17:02.060Z,46.83
2023-01-06T20:19:30.677Z,41.42
2023-01-06T20:21:59.101Z,52.00
2023-01-06T20:24:27.599Z,39.65
2023-01-06T20:26:55.959Z,37.85
2023-01-06T20:29:24.566Z,39.75
2023-01-06T20:31:53.147Z,42.47
2023-01-06T20:34:21.632Z,41.28
2023-01-06T20:36:50.215Z,41.80
2023-01-06T20:39:18.776Z,45.28
2023-01-06T20:41:46.844Z,48.42
2023-01-06T20:44:15.403Z,40.13
2023-01-06T20:46:43.551Z,45.40
2023-01-06T20:49:13.639Z,37.80
2023-01-06T20:51:41.710Z,19.42
2023-01-06T20:54:10.191Z,47.17
2023-01-06T20:56:38.761Z,52.45
2023-01-06T20:59:07.220Z,44.55
2023-01-06T21:01:35.954Z,48.15
2023-01-06T21:04:04.875Z,42.67
2023-01-06T21:06:33.292Z,45.33
2023-01-06T21:09:01.685Z,55.72
2023-01-06T21:11:30.146Z,39.45
2023-01-06T21:13:58.503Z,54.70
2023-01-06T21:16:26.996Z,77.15
2023-01-06T21:18:55.806Z,59.03
2023-01-06T21:21:24.369Z,61.28
2023-01-06T21:23:52.717Z,53.05
2023-01-06T21:26:21.029Z,31.00
2023-01-06T21:28:49.342Z,39.92
2023-01-06T21:31:17.817Z,50.42
2023-01-06T21:33:46.475Z,53.25
2023-01-06T21:36:15.044Z,47.95
2023-01-06T21:38:43.317Z,48.10
2023-01-06T21:41:30.076Z,51.65
2023-01-06T21:43:58.539Z,44.05
2023-01-06T21:46:26.827Z,44.95
2023-01-06T21:48:55.021Z,43.78
2023-01-06T21:51:23.594Z,43.53
2023-01-06T21:53:52.337Z,47.03
2023-01-06T21:56:20.851Z,40.90
2023-01-06T21:58:49.293Z,38.63
2023-01-06T22:01:19.646Z,34.70
2023-01-06T22:03:48.286Z,40.70
2023-01-06T22:06:19.794Z,67.65
2023-01-06T22:08:51.537Z,66.03
2023-01-06T22:11:20.098Z,64.05
2023-01-06T22:13:48.557Z,63.53
2023-01-06T22:16:17.266Z,52.30
2023-01-06T22:18:45.906Z,52.40
2023-01-06T22:21:14.220Z,41.25
2023-01-06T22:23:44.146Z,39.05
2023-01-06T22:26:14.177Z,41.85
2023-01-06T22:28:42.387Z,44.42
2023-01-06T22:31:10.808Z,56.08
2023-01-06T22:33:39.122Z,39.78
2023-01-06T22:36:07.662Z,47.00
2023-01-06T22:38:35.775Z,46.22
2023-01-06T22:41:04.576Z,32.50
2023-01-06T22:43:32.716Z,29.80
2023-01-06T22:46:00.707Z,29.67
2023-01-06T22:48:28.846Z,33.42
2023-01-06T22:51:01.993Z,34.15
2023-01-06T22:53:31.520Z,36.53
2023-01-06T22:56:08.278Z,38.83
2023-01-06T22:58:39.706Z,38.25
2023-01-06T23:01:09.502Z,39.35
2023-01-06T23:03:38.279Z,46.90
2023-01-06T23:06:09.444Z,36.47
2023-01-06T23:08:48.056Z,31.42
2023-01-06T23:11:27.812Z,39.38
2023-01-06T23:13:57.954Z,31.30
2023-01-06T23:16:27.262Z,31.33
2023-01-06T23:18:55.224Z,37.33
2023-01-06T23:21:25.225Z,41.67
2023-01-06T23:23:54.145Z,36.75
2023-01-06T23:26:25.046Z,28.65
2023-01-06T23:28:54.311Z,30.35
2023-01-06T23:31:29.071Z,30.15
2023-01-06T23:34:00.395Z,22.30
2023-01-06T23:36:31.034Z,21.83
2023-01-06T23:39:00.520Z,20.17
2023-01-06T23:41:31.718Z,16.13
2023-01-06T23:44:00.811Z,21.40
2023-01-06T23:46:34.789Z,22.20
2023-01-06T23:49:03.938Z,22.92
2023-01-06T23:51:32.829Z,22.30
2023-01-06T23:54:02.336Z,23.75
2023-01-06T23:56:32.394Z,28.70
2023-01-06T23:59:02.285Z,22.50
